sensor_id;sensor_type;location;lat;lon;timestamp;pressure;altitude;pressure_sealevel;temperature;humidity
50696;BME280;36665;51.786;21.594;2023-02-04T00:01:35;91182.49;;;-2.09;79.88
50696;BME280;36665;51.786;21.594;2023-02-04T00:09:58;91179.10;;;-2.10;79.89
50696;BME280;36665;51.786;21.594;2023-02-04T00:18:21;91179.51;;;-2.10;80.14
50696;BME280;36665;51.786;21.594;2023-02-04T00:26:44;91164.56;;;-2.15;80.07
50696;BME280;36665;51.786;21.594;2023-02-04T00:35:07;91155.88;;;-2.18;80.17
50696;BME280;36665;51.786;21.594;2023-02-04T00:43:31;91144.88;;;-2.21;79.95
50696;BME280;36665;51.786;21.594;2023-02-04T00:51:54;91129.48;;;-2.24;80.16
50696;BME280;36665;51.786;21.594;2023-02-04T01:00:17;91108.52;;;-2.30;80.03
50696;BME280;36665;51.786;21.594;2023-02-04T01:08:40;91089.55;;;-2.36;79.89
50696;BME280;36665;51.786;21.594;2023-02-04T01:17:03;91066.62;;;-2.41;79.95
50696;BME280;36665;51.786;21.594;2023-02-04T01:25:26;91044.31;;;-2.48;80.05
50696;BME280;36665;51.786;21.594;2023-02-04T01:33:49;91021.44;;;-2.55;80.02
50696;BME280;36665;51.786;21.594;2023-02-04T01:42:13;91000.73;;;-2.61;80.15
50696;BME280;36665;51.786;21.594;2023-02-04T01:50:37;90989.65;;;-2.63;80.06
50696;BME280;36665;51.786;21.594;2023-02-04T01:59:00;90997.95;;;-2.62;80.09
50696;BME280;36665;51.786;21.594;2023-02-04T02:07:23;91008.80;;;-2.58;80.00
50696;BME280;36665;51.786;21.594;2023-02-04T02:15:46;91022.42;;;-2.54;80.08
50696;BME280;36665;51.786;21.594;2023-02-04T02:24:29;91031.15;;;-2.52;80.04
50696;BME280;36665;51.786;21.594;2023-02-04T02:32:54;91038.73;;;-2.50;80.05
50696;BME280;36665;51.786;21.594;2023-02-04T02:41:17;91045.14;;;-2.48;80.07
50696;BME280;36665;51.786;21.594;2023-02-04T02:49:41;91041.21;;;-2.50;80.24
50696;BME280;36665;51.786;21.594;2023-02-04T02:58:11;91033.02;;;-2.51;80.15
50696;BME280;36665;51.786;21.594;2023-02-04T03:06:39;91036.25;;;-2.51;80.25
50696;BME280;36665;51.786;21.594;2023-02-04T03:15:03;91033.21;;;-2.52;80.42
50696;BME280;36665;51.786;21.594;2023-02-04T03:23:26;91033.11;;;-2.51;80.45
50696;BME280;36665;51.786;21.594;2023-02-04T03:31:51;91034.13;;;-2.51;80.30
50696;BME280;36665;51.786;21.594;2023-02-04T03:40:17;91018.41;;;-2.55;80.45
50696;BME280;36665;51.786;21.594;2023-02-04T03:48:41;91015.55;;;-2.56;80.34
50696;BME280;36665;51.786;21.594;2023-02-04T03:57:04;91011.02;;;-2.57;80.39
50696;BME280;36665;51.786;21.594;2023-02-04T04:05:27;90994.40;;;-2.62;80.40
50696;BME280;36665;51.786;21.594;2023-02-04T04:13:50;90985.83;;;-2.64;80.24
50696;BME280;36665;51.786;21.594;2023-02-04T04:22:14;90996.23;;;-2.63;80.31
50696;BME280;36665;51.786;21.594;2023-02-04T04:30:37;91000.70;;;-2.60;80.25
50696;BME280;36665;51.786;21.594;2023-02-04T04:39:00;91010.55;;;-2.57;80.30
50696;BME280;36665;51.786;21.594;2023-02-04T04:47:23;91003.02;;;-2.60;80.35
50696;BME280;36665;51.786;21.594;2023-02-04T04:55:46;91001.98;;;-2.59;80.16
50696;BME280;36665;51.786;21.594;2023-02-04T05:04:09;90979.08;;;-2.66;80.30
50696;BME280;36665;51.786;21.594;2023-02-04T05:12:32;90958.95;;;-2.72;80.18
50696;BME280;36665;51.786;21.594;2023-02-04T05:20:55;90916.08;;;-2.83;80.16
50696;BME280;36665;51.786;21.594;2023-02-04T05:29:18;90882.39;;;-2.92;80.31
50696;BME280;36665;51.786;21.594;2023-02-04T05:37:41;90853.61;;;-3.00;80.12
50696;BME280;36665;51.786;21.594;2023-02-04T05:46:04;90858.92;;;-2.98;80.10
50696;BME280;36665;51.786;21.594;2023-02-04T05:54:29;90881.05;;;-2.93;80.18
50696;BME280;36665;51.786;21.594;2023-02-04T06:02:55;90902.80;;;-2.87;80.14
50696;BME280;36665;51.786;21.594;2023-02-04T06:11:18;90936.44;;;-2.79;80.09
50696;BME280;36665;51.786;21.594;2023-02-04T06:19:41;90957.64;;;-2.72;80.14
50696;BME280;36665;51.786;21.594;2023-02-04T06:28:04;90982.33;;;-2.65;79.99
50696;BME280;36665;51.786;21.594;2023-02-04T06:36:27;90996.48;;;-2.61;80.06
50696;BME280;36665;51.786;21.594;2023-02-04T06:44:50;91022.69;;;-2.54;80.11
50696;BME280;36665;51.786;21.594;2023-02-04T06:53:14;91049.23;;;-2.46;80.00
50696;BME280;36665;51.786;21.594;2023-02-04T07:01:37;91085.79;;;-2.36;80.11
50696;BME280;36665;51.786;21.594;2023-02-04T07:10:00;91120.50;;;-2.26;80.39
50696;BME280;36665;51.786;21.594;2023-02-04T07:18:23;91169.11;;;-2.13;80.29
50696;BME280;36665;51.786;21.594;2023-02-04T07:26:46;91184.64;;;-2.08;80.02
50696;BME280;36665;51.786;21.594;2023-02-04T07:35:09;91205.19;;;-2.03;80.22
50696;BME280;36665;51.786;21.594;2023-02-04T07:43:34;91240.45;;;-1.94;80.11
50696;BME280;36665;51.786;21.594;2023-02-04T07:51:57;91280.77;;;-1.82;80.29
50696;BME280;36665;51.786;21.594;2023-02-04T08:00:20;91339.85;;;-1.65;80.26
50696;BME280;36665;51.786;21.594;2023-02-04T08:08:43;91333.47;;;-1.67;80.28
50696;BME280;36665;51.786;21.594;2023-02-04T08:17:06;91302.67;;;-1.77;80.18
50696;BME280;36665;51.786;21.594;2023-02-04T08:25:29;91304.67;;;-1.74;80.20
50696;BME280;36665;51.786;21.594;2023-02-04T08:33:52;91592.96;;;-0.96;80.14
50696;BME280;36665;51.786;21.594;2023-02-04T08:42:15;91945.45;;;-0.00;80.63
50696;BME280;36665;51.786;21.594;2023-02-04T08:50:38;91902.31;;;-0.11;80.49
50696;BME280;36665;51.786;21.594;2023-02-04T08:59:01;91762.11;;;-0.49;80.35
50696;BME280;36665;51.786;21.594;2023-02-04T09:07:24;91698.35;;;-0.68;80.16
50696;BME280;36665;51.786;21.594;2023-02-04T09:15:47;91658.87;;;-0.77;80.15
50696;BME280;36665;51.786;21.594;2023-02-04T09:24:10;91611.61;;;-0.90;80.15
50696;BME280;36665;51.786;21.594;2023-02-04T09:32:33;91586.42;;;-0.98;80.03
50696;BME280;36665;51.786;21.594;2023-02-04T09:40:59;91543.00;;;-1.10;79.72
50696;BME280;36665;51.786;21.594;2023-02-04T09:49:24;91474.35;;;-1.28;79.57
50696;BME280;36665;51.786;21.594;2023-02-04T09:57:48;91478.49;;;-1.26;79.64
50696;BME280;36665;51.786;21.594;2023-02-04T10:06:13;91441.23;;;-1.37;79.63
50696;BME280;36665;51.786;21.594;2023-02-04T10:14:36;91420.06;;;-1.42;79.38
50696;BME280;36665;51.786;21.594;2023-02-04T10:22:59;91399.48;;;-1.47;79.20
50696;BME280;36665;51.786;21.594;2023-02-04T10:31:37;91378.92;;;-1.53;79.48
50696;BME280;36665;51.786;21.594;2023-02-04T10:40:00;91357.98;;;-1.59;79.36
50696;BME280;36665;51.786;21.594;2023-02-04T10:48:24;91354.27;;;-1.58;79.10
50696;BME280;36665;51.786;21.594;2023-02-04T10:56:47;91383.77;;;-1.51;79.25
50696;BME280;36665;51.786;21.594;2023-02-04T11:05:15;91465.91;;;-1.27;79.25
50696;BME280;36665;51.786;21.594;2023-02-04T11:13:41;91556.86;;;-1.02;79.41
50696;BME280;36665;51.786;21.594;2023-02-04T11:22:36;91567.83;;;-1.00;79.15
50696;BME280;36665;51.786;21.594;2023-02-04T11:31:59;91475.48;;;-1.25;78.93
50696;BME280;36665;51.786;21.594;2023-02-04T11:39:57;91385.34;;;-1.49;79.00
50696;BME280;36665;51.786;21.594;2023-02-04T11:48:21;91277.65;;;-1.78;78.58
50696;BME280;36665;51.786;21.594;2023-02-04T11:56:45;91192.75;;;-2.02;78.63
50696;BME280;36665;51.786;21.594;2023-02-04T12:05:14;91095.94;;;-2.29;78.50
50696;BME280;36665;51.786;21.594;2023-02-04T12:13:49;91027.02;;;-2.48;78.48
50696;BME280;36665;51.786;21.594;2023-02-04T12:22:14;90992.14;;;-2.58;78.38
50696;BME280;36665;51.786;21.594;2023-02-04T12:30:37;90975.25;;;-2.63;78.34
50696;BME280;36665;51.786;21.594;2023-02-04T12:39:00;90968.63;;;-2.63;78.24
50696;BME280;36665;51.786;21.594;2023-02-04T12:47:24;90957.17;;;-2.67;78.01
50696;BME280;36665;51.786;21.594;2023-02-04T12:55:47;90897.90;;;-2.83;78.05
50696;BME280;36665;51.786;21.594;2023-02-04T13:04:10;90889.48;;;-2.85;78.01
50696;BME280;36665;51.786;21.594;2023-02-04T13:12:33;90920.33;;;-2.77;78.13
50696;BME280;36665;51.786;21.594;2023-02-04T13:20:56;90981.49;;;-2.59;78.00
50696;BME280;36665;51.786;21.594;2023-02-04T13:29:19;91028.55;;;-2.47;77.88
50696;BME280;36665;51.786;21.594;2023-02-04T13:37:44;91045.29;;;-2.41;77.97
50696;BME280;36665;51.786;21.594;2023-02-04T13:46:07;91036.63;;;-2.44;77.97
50696;BME280;36665;51.786;21.594;2023-02-04T13:54:30;90984.48;;;-2.58;77.96
50696;BME280;36665;51.786;21.594;2023-02-04T14:02:53;90948.87;;;-2.69;77.86
50696;BME280;36665;51.786;21.594;2023-02-04T14:11:18;90939.74;;;-2.70;78.02
50696;BME280;36665;51.786;21.594;2023-02-04T14:19:41;90896.88;;;-2.82;77.87
50696;BME280;36665;51.786;21.594;2023-02-04T14:28:04;90887.99;;;-2.85;77.63
50696;BME280;36665;51.786;21.594;2023-02-04T14:36:27;90866.55;;;-2.91;77.65
50696;BME280;36665;51.786;21.594;2023-02-04T14:44:50;90847.16;;;-2.96;77.63
50696;BME280;36665;51.786;21.594;2023-02-04T14:53:13;90840.05;;;-2.98;77.73
50696;BME280;36665;51.786;21.594;2023-02-04T15:01:36;90813.52;;;-3.06;77.67
50696;BME280;36665;51.786;21.594;2023-02-04T15:09:59;90784.52;;;-3.13;77.69
50696;BME280;36665;51.786;21.594;2023-02-04T15:18:22;90784.36;;;-3.13;77.69
50696;BME280;36665;51.786;21.594;2023-02-04T15:26:45;90784.11;;;-3.13;77.51
50696;BME280;36665;51.786;21.594;2023-02-04T15:35:08;90764.23;;;-3.18;77.41
50696;BME280;36665;51.786;21.594;2023-02-04T15:43:31;90759.98;;;-3.19;77.66
50696;BME280;36665;51.786;21.594;2023-02-04T15:51:54;90754.57;;;-3.21;77.73
50696;BME280;36665;51.786;21.594;2023-02-04T16:00:17;90729.38;;;-3.27;77.52
50696;BME280;36665;51.786;21.594;2023-02-04T16:08:40;90712.23;;;-3.32;77.42
50696;BME280;36665;51.786;21.594;2023-02-04T16:17:03;90711.26;;;-3.32;77.24
50696;BME280;36665;51.786;21.594;2023-02-04T16:25:29;90705.36;;;-3.35;77.40
50696;BME280;36665;51.786;21.594;2023-02-04T16:33:52;90685.48;;;-3.40;77.53
50696;BME280;36665;51.786;21.594;2023-02-04T16:42:15;90676.16;;;-3.42;77.43
50696;BME280;36665;51.786;21.594;2023-02-04T16:50:38;90668.33;;;-3.44;77.27
50696;BME280;36665;51.786;21.594;2023-02-04T16:59:02;90649.23;;;-3.49;77.19
50696;BME280;36665;51.786;21.594;2023-02-04T17:07:25;90650.61;;;-3.48;77.41
50696;BME280;36665;51.786;21.594;2023-02-04T17:15:49;90675.96;;;-3.42;77.15
50696;BME280;36665;51.786;21.594;2023-02-04T17:24:12;90669.69;;;-3.43;77.15
50696;BME280;36665;51.786;21.594;2023-02-04T17:32:35;90658.19;;;-3.46;77.08
50696;BME280;36665;51.786;21.594;2023-02-04T17:40:58;90645.17;;;-3.49;77.04
50696;BME280;36665;51.786;21.594;2023-02-04T17:49:22;90634.81;;;-3.52;77.28
50696;BME280;36665;51.786;21.594;2023-02-04T17:57:45;90642.23;;;-3.51;77.14
50696;BME280;36665;51.786;21.594;2023-02-04T18:06:29;90650.42;;;-3.48;77.18
50696;BME280;36665;51.786;21.594;2023-02-04T18:14:52;90638.47;;;-3.52;76.97
50696;BME280;36665;51.786;21.594;2023-02-04T18:23:16;90608.73;;;-3.59;77.04
50696;BME280;36665;51.786;21.594;2023-02-04T18:31:49;90611.33;;;-3.59;77.22
50696;BME280;36665;51.786;21.594;2023-02-04T18:40:24;90616.02;;;-3.58;77.15
50696;BME280;36665;51.786;21.594;2023-02-04T18:57:34;90580.09;;;-3.67;77.08
50696;BME280;36665;51.786;21.594;2023-02-04T19:06:01;90565.32;;;-3.71;77.21
50696;BME280;36665;51.786;21.594;2023-02-04T19:14:35;90589.66;;;-3.65;77.17
50696;BME280;36665;51.786;21.594;2023-02-04T19:22:59;90579.84;;;-3.68;77.07
50696;BME280;36665;51.786;21.594;2023-02-04T19:31:29;90540.92;;;-3.78;77.13
50696;BME280;36665;51.786;21.594;2023-02-04T19:39:54;90515.23;;;-3.86;77.04
50696;BME280;36665;51.786;21.594;2023-02-04T19:48:36;90498.86;;;-3.90;77.00
50696;BME280;36665;51.786;21.594;2023-02-04T19:57:00;90514.98;;;-3.86;76.97
50696;BME280;36665;51.786;21.594;2023-02-04T20:05:23;90519.27;;;-3.83;77.21
50696;BME280;36665;51.786;21.594;2023-02-04T20:13:54;90509.11;;;-3.87;77.17
50696;BME280;36665;51.786;21.594;2023-02-04T20:30:45;90473.20;;;-3.96;76.86
50696;BME280;36665;51.786;21.594;2023-02-04T20:47:45;90505.58;;;-3.87;76.87
50696;BME280;36665;51.786;21.594;2023-02-04T20:56:26;90488.95;;;-3.91;77.13
50696;BME280;36665;51.786;21.594;2023-02-04T21:04:49;90473.83;;;-3.96;76.92
50696;BME280;36665;51.786;21.594;2023-02-04T21:13:15;90482.56;;;-3.94;77.08
50696;BME280;36665;51.786;21.594;2023-02-04T21:21:38;90459.38;;;-3.99;76.99
50696;BME280;36665;51.786;21.594;2023-02-04T21:30:01;90410.77;;;-4.13;76.98
50696;BME280;36665;51.786;21.594;2023-02-04T21:38:24;90370.21;;;-4.24;76.72
50696;BME280;36665;51.786;21.594;2023-02-04T21:46:47;90332.89;;;-4.34;76.93
50696;BME280;36665;51.786;21.594;2023-02-04T21:55:12;90302.08;;;-4.44;76.82
50696;BME280;36665;51.786;21.594;2023-02-04T22:03:36;90309.91;;;-4.40;76.56
50696;BME280;36665;51.786;21.594;2023-02-04T22:11:59;90351.03;;;-4.29;76.74
50696;BME280;36665;51.786;21.594;2023-02-04T22:20:23;90384.92;;;-4.20;76.85
50696;BME280;36665;51.786;21.594;2023-02-04T22:28:47;90399.35;;;-4.17;76.96
50696;BME280;36665;51.786;21.594;2023-02-04T22:37:10;90424.31;;;-4.09;76.86
50696;BME280;36665;51.786;21.594;2023-02-04T22:45:33;90440.60;;;-4.05;77.00
50696;BME280;36665;51.786;21.594;2023-02-04T22:53:57;90405.02;;;-4.14;76.95
50696;BME280;36665;51.786;21.594;2023-02-04T23:02:20;90358.48;;;-4.28;76.84
50696;BME280;36665;51.786;21.594;2023-02-04T23:10:43;90307.97;;;-4.41;76.72
50696;BME280;36665;51.786;21.594;2023-02-04T23:19:09;90241.27;;;-4.61;76.91
50696;BME280;36665;51.786;21.594;2023-02-04T23:27:32;90178.16;;;-4.77;76.64
50696;BME280;36665;51.786;21.594;2023-02-04T23:35:55;90154.53;;;-4.84;76.43
50696;BME280;36665;51.786;21.594;2023-02-04T23:44:18;90134.25;;;-4.90;76.54
50696;BME280;36665;51.786;21.594;2023-02-04T23:52:41;90105.88;;;-4.98;76.55
